createdAt,value
2023-05-14T00:00:13.776Z,11.87
2023-05-14T00:02:42.252Z,10.47
2023-05-14T00:05:14.319Z,11.43
2023-05-14T00:07:42.735Z,10.40
2023-05-14T00:10:11.591Z,10.87
2023-05-14T00:12:40.024Z,10.07
2023-05-14T00:15:09.071Z,10.93
2023-05-14T00:17:39.040Z,10.47
2023-05-14T00:20:08.184Z,9.93
2023-05-14T00:22:38.199Z,11.33
2023-05-14T00:25:07.169Z,11.10
2023-05-14T00:27:36.093Z,10.00
2023-05-14T00:30:07.183Z,10.70
2023-05-14T00:32:35.869Z,11.97
2023-05-14T00:35:04.543Z,9.93
2023-05-14T00:37:33.207Z,10.67
2023-05-14T00:40:03.901Z,11.47
2023-05-14T00:42:32.769Z,11.83
2023-05-14T00:45:02.123Z,11.40
2023-05-14T00:47:30.559Z,12.10
2023-05-14T00:49:59.605Z,12.10
2023-05-14T00:52:28.568Z,11.13
2023-05-14T00:54:57.395Z,12.33
2023-05-14T00:57:27.460Z,11.23
2023-05-14T00:59:55.914Z,11.93
2023-05-14T01:02:24.368Z,11.60
2023-05-14T01:04:53.193Z,12.03
2023-05-14T01:07:25.791Z,11.33
2023-05-14T01:09:56.731Z,12.10
2023-05-14T01:12:29.600Z,12.17
2023-05-14T01:15:01.483Z,11.83
2023-05-14T01:17:31.588Z,11.83
2023-05-14T01:20:00.446Z,11.67
2023-05-14T01:22:30.332Z,11.00
2023-05-14T01:24:58.982Z,11.73
2023-05-14T01:27:31.732Z,11.60
2023-05-14T01:30:04.292Z,11.60
2023-05-14T01:32:34.405Z,11.87
2023-05-14T01:35:04.456Z,11.90
2023-05-14T01:37:34.700Z,12.23
2023-05-14T01:40:03.697Z,10.60
2023-05-14T01:42:32.365Z,11.27
2023-05-14T01:45:01.186Z,12.10
2023-05-14T01:47:29.807Z,12.40
2023-05-14T01:49:58.418Z,12.23
2023-05-14T01:52:26.843Z,12.13
2023-05-14T01:54:58.392Z,11.93
2023-05-14T01:57:26.885Z,10.67
2023-05-14T01:59:55.502Z,11.10
2023-05-14T02:02:23.864Z,10.97
2023-05-14T02:04:52.550Z,11.40
2023-05-14T02:07:22.027Z,11.63
2023-05-14T02:09:50.460Z,11.20
2023-05-14T02:12:20.432Z,12.23
2023-05-14T02:14:48.964Z,11.97
2023-05-14T02:17:17.859Z,10.87
2023-05-14T02:19:46.318Z,10.53
2023-05-14T02:22:16.806Z,11.73
2023-05-14T02:24:45.581Z,12.83
2023-05-14T02:27:13.968Z,13.40
2023-05-14T02:29:44.277Z,14.00
2023-05-14T02:32:12.814Z,13.77
2023-05-14T02:34:41.504Z,13.50
2023-05-14T02:37:10.293Z,13.97
2023-05-14T02:39:39.266Z,13.70
2023-05-14T02:42:08.563Z,13.47
2023-05-14T02:44:37.178Z,13.37
2023-05-14T02:47:07.825Z,13.73
2023-05-14T02:49:36.623Z,13.80
2023-05-14T02:52:05.101Z,12.70
2023-05-14T02:54:33.567Z,14.60
2023-05-14T02:57:02.023Z,14.23
2023-05-14T02:59:31.501Z,12.47
2023-05-14T03:02:05.795Z,12.17
2023-05-14T03:04:36.277Z,12.80
2023-05-14T03:07:04.711Z,13.87
2023-05-14T03:09:33.667Z,12.33
2023-05-14T03:12:05.930Z,10.77
2023-05-14T03:14:34.373Z,11.50
2023-05-14T03:17:04.299Z,11.83
2023-05-14T03:19:32.896Z,11.77
2023-05-14T03:22:02.914Z,11.47
2023-05-14T03:24:32.270Z,12.87
2023-05-14T03:27:01.972Z,13.00
2023-05-14T03:29:30.473Z,11.57
2023-05-14T03:31:59.074Z,11.57
2023-05-14T03:34:27.510Z,13.50
2023-05-14T03:36:56.545Z,10.80
2023-05-14T03:39:26.273Z,12.07
2023-05-14T03:41:57.249Z,12.20
2023-05-14T03:44:26.058Z,11.33
2023-05-14T03:46:54.785Z,12.30
2023-05-14T03:49:23.607Z,11.67
2023-05-14T03:51:52.146Z,12.50
2023-05-14T03:54:20.619Z,12.83
2023-05-14T03:56:50.476Z,13.07
2023-05-14T03:59:19.354Z,11.80
2023-05-14T04:01:48.026Z,13.33
2023-05-14T04:04:17.855Z,12.07
2023-05-14T04:06:46.313Z,13.43
2023-05-14T04:09:14.800Z,13.00
2023-05-14T04:11:43.284Z,12.80
2023-05-14T04:14:13.819Z,12.90
2023-05-14T04:16:42.725Z,13.30
2023-05-14T04:19:11.372Z,13.80
2023-05-14T04:21:40.134Z,13.13
2023-05-14T04:24:08.904Z,13.17
2023-05-14T04:26:37.613Z,13.43
2023-05-14T04:29:05.991Z,13.57
2023-05-14T04:31:35.876Z,12.20
2023-05-14T04:34:04.391Z,13.40
2023-05-14T04:36:34.254Z,12.27
2023-05-14T04:39:02.821Z,12.47
2023-05-14T04:41:31.369Z,12.50
2023-05-14T04:44:00.808Z,12.60
2023-05-14T04:46:29.307Z,13.40
2023-05-14T04:48:59.295Z,13.10
2023-05-14T04:51:28.026Z,13.97
2023-05-14T04:53:56.513Z,12.50
2023-05-14T04:56:25.051Z,12.30
2023-05-14T04:58:53.398Z,12.83
2023-05-14T05:01:23.563Z,14.27
2023-05-14T05:03:53.019Z,15.37
2023-05-14T05:06:22.876Z,13.60
2023-05-14T05:08:51.328Z,14.13
2023-05-14T05:11:19.685Z,13.37
2023-05-14T05:13:48.055Z,12.60
2023-05-14T05:16:16.770Z,13.53
2023-05-14T05:18:45.775Z,13.90
2023-05-14T05:21:14.600Z,13.87
2023-05-14T05:23:44.420Z,14.60
2023-05-14T05:26:13.169Z,14.13
2023-05-14T05:28:41.605Z,14.70
2023-05-14T05:31:10.280Z,13.57
2023-05-14T05:33:38.922Z,14.90
2023-05-14T05:36:07.564Z,15.00
2023-05-14T05:38:36.251Z,13.50
2023-05-14T05:41:06.455Z,14.30
2023-05-14T05:43:34.950Z,13.77
2023-05-14T05:46:03.460Z,14.90
2023-05-14T05:48:32.164Z,14.47
2023-05-14T05:51:00.586Z,14.87
2023-05-14T05:53:29.023Z,15.37
2023-05-14T05:56:00.333Z,12.90
2023-05-14T05:58:31.442Z,14.90
2023-05-14T06:01:00.028Z,13.83
2023-05-14T06:03:28.886Z,13.77
2023-05-14T06:05:57.273Z,14.73
2023-05-14T06:08:25.868Z,16.17
2023-05-14T06:10:54.470Z,13.63
2023-05-14T06:13:23.905Z,15.20
2023-05-14T06:15:54.292Z,15.23
2023-05-14T06:18:23.678Z,15.37
2023-05-14T06:20:52.402Z,15.27
2023-05-14T06:23:21.071Z,14.87
2023-05-14T06:25:51.210Z,14.87
2023-05-14T06:28:21.178Z,15.50
2023-05-14T06:30:52.246Z,15.43
2023-05-14T06:33:29.845Z,16.40
2023-05-14T06:35:58.710Z,15.37
2023-05-14T06:38:27.375Z,15.50
2023-05-14T06:40:55.880Z,15.73
2023-05-14T06:43:24.461Z,15.57
2023-05-14T06:45:53.182Z,15.13
2023-05-14T06:48:23.263Z,15.47
2023-05-14T06:50:51.985Z,15.23
2023-05-14T06:53:20.603Z,15.10
2023-05-14T06:55:49.405Z,13.43
2023-05-14T06:58:17.833Z,14.60
2023-05-14T07:00:48.125Z,14.43
2023-05-14T07:03:17.154Z,15.60
2023-05-14T07:05:47.364Z,14.00
2023-05-14T07:08:19.080Z,14.87
2023-05-14T07:10:47.832Z,14.33
2023-05-14T07:13:16.556Z,14.73
2023-05-14T07:15:49.858Z,14.50
2023-05-14T07:18:18.798Z,15.87
2023-05-14T07:20:50.654Z,16.70
2023-05-14T07:23:21.341Z,17.33
2023-05-14T07:26:06.081Z,15.27
2023-05-14T07:28:35.119Z,16.80
2023-05-14T07:31:05.205Z,17.57
2023-05-14T07:33:34.134Z,17.53
2023-05-14T07:36:05.541Z,16.30
2023-05-14T07:38:34.551Z,17.13
2023-05-14T07:41:04.353Z,17.57
2023-05-14T07:43:33.152Z,16.33
2023-05-14T07:46:01.994Z,16.33
2023-05-14T07:48:31.194Z,17.37
2023-05-14T07:51:00.196Z,16.80
2023-05-14T07:53:30.747Z,16.70
2023-05-14T07:56:01.648Z,16.80
2023-05-14T07:58:30.555Z,15.50
2023-05-14T08:01:01.531Z,15.47
2023-05-14T08:03:30.620Z,16.13
2023-05-14T08:05:59.746Z,16.90
2023-05-14T08:08:31.226Z,16.33
2023-05-14T08:11:00.222Z,16.40
2023-05-14T08:13:29.038Z,16.30
2023-05-14T08:15:57.954Z,15.20
2023-05-14T08:18:26.770Z,16.13
2023-05-14T08:20:56.134Z,15.70
2023-05-14T08:23:28.372Z,16.17
2023-05-14T08:25:59.566Z,16.47
2023-05-14T08:28:35.168Z,16.20
2023-05-14T08:31:03.750Z,15.83
2023-05-14T08:33:32.179Z,14.50
2023-05-14T08:36:00.747Z,14.50
2023-05-14T08:38:29.173Z,13.83
2023-05-14T08:41:01.806Z,15.27
2023-05-14T08:43:33.101Z,13.13
2023-05-14T08:46:03.209Z,12.63
2023-05-14T08:48:34.975Z,12.87
2023-05-14T08:51:04.729Z,11.10
2023-05-14T08:53:33.241Z,11.73
2023-05-14T08:56:03.742Z,11.07
2023-05-14T08:58:37.556Z,9.53
2023-05-14T09:01:06.020Z,9.53
2023-05-14T09:03:35.087Z,8.23
2023-05-14T09:06:03.950Z,7.37
2023-05-14T09:08:32.418Z,8.20
2023-05-14T09:11:01.213Z,7.30
2023-05-14T09:13:31.454Z,7.80
2023-05-14T09:16:00.579Z,8.00
2023-05-14T09:18:29.355Z,7.27
2023-05-14T09:20:57.910Z,6.63
2023-05-14T09:23:27.766Z,7.53
2023-05-14T09:25:57.315Z,6.77
2023-05-14T09:28:28.190Z,6.83
2023-05-14T09:30:58.130Z,7.40
2023-05-14T09:33:29.988Z,6.90
2023-05-14T09:36:00.938Z,6.77
2023-05-14T09:38:32.733Z,6.60
2023-05-14T09:41:04.632Z,5.80
2023-05-14T09:43:33.240Z,6.03
2023-05-14T09:46:03.048Z,6.03
2023-05-14T09:48:31.480Z,5.90
2023-05-14T09:51:00.793Z,6.00
2023-05-14T09:53:30.765Z,6.00
2023-05-14T09:55:59.575Z,5.40
2023-05-14T09:58:27.963Z,5.17
2023-05-14T10:00:57.042Z,5.30
2023-05-14T10:03:27.909Z,5.60
2023-05-14T10:05:58.062Z,5.10
2023-05-14T10:08:28.444Z,5.00
2023-05-14T10:10:57.396Z,5.40
2023-05-14T10:13:28.392Z,5.07
2023-05-14T10:16:00.864Z,5.30
2023-05-14T10:18:33.230Z,4.87
2023-05-14T10:21:05.814Z,5.60
2023-05-14T10:23:34.224Z,5.20
2023-05-14T10:26:03.250Z,5.30
2023-05-14T10:28:32.149Z,5.50
2023-05-14T10:31:01.739Z,5.77
2023-05-14T10:33:31.947Z,5.27
2023-05-14T10:36:02.360Z,6.10
2023-05-14T10:38:31.239Z,5.40
2023-05-14T10:41:01.181Z,5.53
2023-05-14T10:43:30.963Z,5.83
2023-05-14T10:45:59.729Z,5.13
2023-05-14T10:48:28.625Z,5.23
2023-05-14T10:50:58.343Z,5.33
2023-05-14T10:53:34.884Z,5.27
2023-05-14T10:56:08.578Z,6.50
2023-05-14T10:58:38.153Z,5.70
2023-05-14T11:01:07.704Z,5.67
2023-05-14T11:03:42.264Z,5.90
2023-05-14T11:06:11.300Z,5.47
2023-05-14T11:08:40.054Z,5.60
2023-05-14T11:11:10.853Z,5.17
2023-05-14T11:14:09.003Z,5.30
2023-05-14T11:16:38.576Z,5.27
2023-05-14T11:19:07.067Z,5.10
2023-05-14T11:21:35.822Z,5.27
2023-05-14T11:24:05.652Z,5.33
2023-05-14T11:26:59.657Z,6.00
2023-05-14T11:29:29.719Z,6.43
2023-05-14T11:31:58.291Z,6.03
2023-05-14T11:34:27.011Z,6.00
2023-05-14T11:36:55.529Z,5.63
2023-05-14T11:39:24.074Z,5.97
2023-05-14T11:41:52.797Z,5.20
2023-05-14T11:44:21.241Z,5.23
2023-05-14T11:49:29.059Z,4.90
2023-05-14T11:52:00.696Z,5.03
2023-05-14T11:54:29.772Z,5.20
2023-05-14T11:56:59.919Z,5.17
2023-05-14T11:59:29.157Z,4.47
2023-05-14T12:01:57.551Z,4.47
2023-05-14T12:04:27.527Z,4.50
2023-05-14T12:06:56.258Z,4.23
2023-05-14T12:09:25.212Z,4.50
2023-05-14T12:11:54.431Z,4.50
2023-05-14T12:14:23.851Z,4.33
2023-05-14T12:22:59.050Z,4.10
2023-05-14T12:25:27.471Z,3.50
2023-05-14T12:27:57.031Z,3.47
2023-05-14T12:30:25.464Z,3.93
2023-05-14T12:32:53.989Z,3.47
2023-05-14T12:35:25.527Z,3.30
2023-05-14T12:37:54.268Z,4.20
2023-05-14T12:40:24.155Z,4.00
2023-05-14T12:42:55.505Z,3.50
2023-05-14T12:45:25.394Z,3.37
2023-05-14T12:47:54.275Z,3.70
2023-05-14T12:50:23.031Z,3.40
2023-05-14T12:52:51.656Z,3.30
2023-05-14T13:01:11.738Z,3.13
2023-05-14T13:06:20.672Z,2.60
2023-05-14T13:08:49.264Z,2.80
2023-05-14T13:11:19.205Z,2.88
2023-05-14T13:13:47.571Z,3.00
2023-05-14T13:16:23.047Z,2.93
2023-05-14T13:18:53.001Z,3.20
2023-05-14T13:21:21.408Z,2.90
2023-05-14T13:29:33.128Z,2.78
2023-05-14T13:32:01.735Z,3.30
2023-05-14T13:42:54.404Z,2.97
2023-05-14T13:45:23.181Z,3.10
2023-05-14T13:53:35.035Z,2.83
2023-05-14T14:01:55.288Z,3.20
2023-05-14T14:04:25.916Z,2.80
2023-05-14T14:09:52.484Z,2.73
2023-05-14T14:12:20.946Z,2.93
2023-05-14T14:14:49.855Z,2.57
2023-05-14T14:17:19.641Z,2.90
2023-05-14T14:19:48.082Z,2.50
2023-05-14T14:22:17.648Z,3.00
2023-05-14T14:27:52.549Z,3.13
2023-05-14T14:30:23.156Z,3.00
2023-05-14T14:32:53.086Z,3.00
2023-05-14T14:35:21.904Z,3.20
2023-05-14T14:37:52.558Z,3.10
2023-05-14T14:40:23.957Z,3.00
2023-05-14T14:42:52.499Z,2.77
2023-05-14T14:45:21.433Z,2.83
2023-05-14T14:47:51.332Z,2.50
2023-05-14T14:50:21.353Z,3.20
2023-05-14T14:52:50.722Z,2.93
2023-05-14T14:55:19.181Z,2.67
2023-05-14T14:57:47.674Z,2.88
2023-05-14T15:00:17.045Z,3.55
2023-05-14T15:02:46.081Z,3.28
2023-05-14T15:05:14.537Z,2.80
2023-05-14T15:07:44.325Z,2.83
2023-05-14T15:10:13.004Z,2.80
2023-05-14T15:12:41.543Z,2.40
2023-05-14T15:15:11.005Z,2.47
2023-05-14T15:17:39.896Z,2.53
2023-05-14T15:20:10.131Z,2.92
2023-05-14T15:22:38.509Z,2.47
2023-05-14T15:25:08.923Z,2.55
2023-05-14T15:27:37.800Z,2.40
2023-05-14T15:30:07.338Z,2.67
2023-05-14T15:32:35.871Z,2.15
2023-05-14T15:35:04.640Z,2.08
2023-05-14T15:37:38.039Z,2.35
2023-05-14T15:40:09.164Z,2.30
2023-05-14T15:42:38.182Z,2.20
2023-05-14T15:45:07.812Z,1.52
2023-05-14T15:47:41.215Z,1.60
2023-05-14T15:50:10.439Z,1.50
2023-05-14T15:52:39.250Z,1.75
2023-05-14T15:55:09.860Z,1.95
2023-05-14T15:57:40.763Z,1.77
2023-05-14T16:00:11.319Z,2.05
2023-05-14T16:02:40.069Z,2.10
2023-05-14T16:05:09.152Z,2.05
2023-05-14T16:07:37.880Z,2.08
2023-05-14T16:10:06.576Z,2.08
2023-05-14T16:12:36.615Z,2.05
2023-05-14T16:15:05.572Z,2.10
2023-05-14T16:17:33.978Z,2.25
2023-05-14T16:20:04.857Z,2.20
2023-05-14T16:22:34.732Z,2.47
2023-05-14T16:25:04.911Z,2.35
2023-05-14T16:27:33.386Z,2.20
2023-05-14T16:30:04.549Z,2.20
2023-05-14T16:32:33.731Z,2.45
2023-05-14T16:35:03.300Z,2.00
2023-05-14T16:37:32.903Z,2.17
2023-05-14T16:40:01.396Z,2.20
2023-05-14T16:42:29.792Z,2.28
2023-05-14T16:45:00.453Z,2.10
2023-05-14T16:47:30.543Z,2.80
2023-05-14T16:49:59.066Z,2.60
2023-05-14T16:52:27.745Z,2.57
2023-05-14T16:54:58.716Z,2.80
2023-05-14T16:57:27.596Z,3.07
2023-05-14T16:59:56.750Z,3.17
2023-05-14T17:02:25.104Z,3.10
2023-05-14T17:04:56.560Z,2.80
2023-05-14T17:07:25.065Z,2.90
2023-05-14T17:09:53.511Z,2.70
2023-05-14T17:12:22.234Z,3.00
2023-05-14T17:14:52.184Z,2.90
2023-05-14T17:17:20.795Z,2.80
2023-05-14T17:19:49.316Z,2.70
2023-05-14T17:22:19.476Z,2.80
2023-05-14T17:24:49.326Z,2.63
2023-05-14T17:27:17.896Z,2.63
2023-05-14T17:29:46.444Z,2.47
2023-05-14T17:32:14.958Z,2.20
2023-05-14T17:34:43.401Z,2.60
2023-05-14T17:37:11.807Z,3.20
2023-05-14T17:39:41.801Z,3.00
2023-05-14T17:42:10.477Z,2.40
2023-05-14T17:44:39.179Z,2.43
2023-05-14T17:47:08.997Z,2.50
2023-05-14T17:49:37.659Z,2.60
2023-05-14T17:52:06.228Z,2.83
2023-05-14T17:54:34.734Z,2.80
2023-05-14T17:57:05.039Z,2.90
2023-05-14T17:59:33.904Z,2.80
2023-05-14T18:02:02.323Z,3.30
2023-05-14T18:04:31.230Z,3.13
2023-05-14T18:07:03.213Z,3.33
2023-05-14T18:09:31.829Z,3.10
2023-05-14T18:12:00.310Z,2.93
2023-05-14T18:14:30.198Z,2.77
2023-05-14T18:16:58.958Z,2.37
2023-05-14T18:19:27.427Z,2.50
2023-05-14T18:21:56.173Z,2.97
2023-05-14T18:24:27.434Z,3.03
2023-05-14T18:27:13.025Z,3.00
2023-05-14T18:29:43.896Z,2.80
2023-05-14T18:32:15.181Z,2.47
2023-05-14T18:34:45.950Z,2.87
2023-05-14T18:37:14.743Z,2.33
2023-05-14T18:39:43.575Z,2.53
2023-05-14T18:42:13.747Z,2.53
2023-05-14T18:44:45.673Z,2.50
2023-05-14T18:47:41.952Z,3.00
2023-05-14T18:54:00.416Z,2.43
2023-05-14T18:56:50.147Z,2.30
2023-05-14T18:59:59.868Z,1.80
2023-05-14T19:02:37.793Z,2.37
2023-05-14T19:05:07.008Z,2.60
2023-05-14T19:07:37.330Z,2.23
2023-05-14T19:10:09.587Z,2.87
2023-05-14T19:12:38.001Z,3.10
2023-05-14T19:15:07.433Z,2.70
2023-05-14T19:17:41.311Z,3.23
2023-05-14T19:24:07.598Z,3.37
2023-05-14T19:26:36.180Z,3.43
2023-05-14T19:32:58.958Z,3.20
2023-05-14T19:44:14.592Z,2.90
2023-05-14T19:46:45.978Z,3.00
2023-05-14T19:49:19.748Z,2.80
2023-05-14T19:51:51.726Z,3.30
2023-05-14T19:54:21.225Z,3.00
2023-05-14T19:56:54.821Z,2.90
2023-05-14T19:59:26.317Z,3.60
2023-05-14T20:01:56.943Z,3.50
2023-05-14T20:04:38.262Z,3.33
2023-05-14T20:07:18.294Z,3.83
2023-05-14T20:09:47.526Z,3.27
2023-05-14T20:12:16.834Z,3.67
2023-05-14T20:14:50.242Z,3.17
2023-05-14T20:20:18.837Z,3.40
2023-05-14T20:23:00.025Z,4.50
2023-05-14T20:25:35.709Z,4.40
2023-05-14T20:28:06.121Z,3.77
2023-05-14T20:30:38.111Z,4.50
2023-05-14T20:33:14.521Z,4.90
2023-05-14T20:35:57.340Z,4.97
2023-05-14T20:38:29.670Z,5.27
2023-05-14T20:41:10.085Z,5.73
2023-05-14T20:43:39.463Z,4.87
2023-05-14T20:46:09.039Z,3.90
2023-05-14T20:48:37.566Z,4.77
2023-05-14T20:51:07.485Z,4.10
2023-05-14T20:53:39.186Z,4.60
2023-05-14T20:56:07.807Z,4.60
2023-05-14T20:58:36.722Z,5.30
2023-05-14T21:01:08.015Z,5.40
2023-05-14T21:03:42.048Z,5.10
2023-05-14T21:06:12.130Z,5.17
2023-05-14T21:08:40.870Z,6.00
2023-05-14T21:11:10.087Z,5.27
2023-05-14T21:14:08.796Z,5.10
2023-05-14T21:16:39.417Z,4.70
2023-05-14T21:19:08.231Z,6.83
2023-05-14T21:22:07.166Z,5.57
2023-05-14T21:24:37.191Z,5.60
2023-05-14T21:27:06.333Z,6.20
2023-05-14T21:29:34.922Z,5.67
2023-05-14T21:32:07.951Z,5.47
2023-05-14T21:34:36.381Z,6.57
2023-05-14T21:37:06.403Z,6.50
2023-05-14T21:39:34.938Z,7.27
2023-05-14T21:42:03.345Z,5.97
2023-05-14T21:44:31.838Z,6.83
2023-05-14T21:47:03.541Z,7.50
2023-05-14T21:49:32.037Z,7.53
2023-05-14T21:52:05.602Z,6.20
2023-05-14T21:54:35.507Z,6.30
2023-05-14T21:57:04.033Z,7.33
2023-05-14T21:59:32.930Z,6.73
2023-05-14T22:02:06.828Z,8.00
2023-05-14T22:04:38.665Z,9.00
2023-05-14T22:07:07.462Z,10.47
2023-05-14T22:15:23.669Z,7.07
2023-05-14T22:17:52.265Z,9.10
2023-05-14T22:20:24.847Z,7.77
2023-05-14T22:22:53.440Z,9.60
2023-05-14T22:25:21.963Z,8.47
2023-05-14T22:27:50.424Z,6.60
2023-05-14T22:30:25.611Z,7.97
2023-05-14T22:32:54.391Z,8.37
2023-05-14T22:35:23.203Z,7.83
2023-05-14T22:37:53.020Z,8.90
2023-05-14T22:40:23.563Z,8.30
2023-05-14T22:42:52.119Z,9.30
2023-05-14T22:45:22.714Z,8.10
2023-05-14T22:47:55.237Z,8.60
2023-05-14T22:50:23.739Z,9.10
2023-05-14T22:52:52.191Z,8.10
2023-05-14T22:55:21.350Z,7.57
2023-05-14T22:57:51.010Z,6.97
2023-05-14T23:00:19.751Z,6.50
2023-05-14T23:02:48.148Z,6.10
2023-05-14T23:05:18.116Z,6.70
2023-05-14T23:07:46.695Z,6.37
2023-05-14T23:10:19.504Z,6.07
2023-05-14T23:12:48.286Z,5.40
2023-05-14T23:15:16.680Z,5.70
2023-05-14T23:17:45.196Z,6.10
2023-05-14T23:20:14.223Z,5.23
2023-05-14T23:22:49.102Z,4.90
2023-05-14T23:25:17.638Z,4.70
2023-05-14T23:27:46.140Z,6.00
2023-05-14T23:30:15.700Z,6.10
2023-05-14T23:32:45.631Z,5.87
2023-05-14T23:35:14.188Z,6.47
2023-05-14T23:37:47.573Z,6.80
2023-05-14T23:40:17.519Z,7.50
2023-05-14T23:42:46.483Z,7.40
2023-05-14T23:45:15.362Z,6.87
2023-05-14T23:47:43.903Z,7.33
2023-05-14T23:50:12.739Z,5.90
2023-05-14T23:52:41.112Z,6.90
2023-05-14T23:55:09.967Z,6.30
2023-05-14T23:57:39.708Z,6.00
